Time;durP1;ratioP1;P1;durP2;ratioP2;P2;SDS_P1;SDS_P2;PMS_P1;PMS_P2;Temp;Humidity;BMP_temperature;BMP_pressure;BME280_temperature;BME280_humidity;BME280_pressure;Samples;Min_cycle;Max_cycle;Signal;HPM_P1;HPM_P2
2022/07/17 14:31:34;;;;;;;;;1.00;1.00;;;;;33.30;27.07;100820.75;5095385;27;1551614;-59
2022/07/17 14:34:10;;;;;;;;;1.80;1.80;;;;;33.48;26.94;100817.75;5132972;27;8824;-59
2022/07/17 14:36:38;;;;;;;;;2.00;2.00;;;;;33.56;27.20;100814.59;5132808;27;8916;-61
2022/07/17 14:39:06;;;;;;;;;1.00;1.00;;;;;33.53;27.19;100815.09;5132191;27;8948;-60
2022/07/17 14:41:34;;;;;;;;;2.00;2.00;;;;;33.51;27.56;100806.22;5131624;27;8820;-61
2022/07/17 14:44:04;;;;;;;;;1.40;1.40;;;;;33.36;27.21;100804.00;5133268;27;8848;-60
2022/07/17 14:46:32;;;;;;;;;1.00;1.00;;;;;33.43;26.99;100803.84;5132583;27;8828;-60
2022/07/17 14:49:00;;;;;;;;;1.00;1.00;;;;;33.65;27.14;100807.53;5132565;27;8962;-60
2022/07/17 14:51:28;;;;;;;;;5.60;5.20;;;;;33.94;26.54;100806.41;5132673;27;8855;-61
2022/07/17 14:53:56;;;;;;;;;1.00;1.00;;;;;34.13;26.30;100802.28;5131908;27;8835;-60
2022/07/17 14:56:24;;;;;;;;;0.80;0.80;;;;;34.35;26.30;100797.66;5131266;27;9273;-60
2022/07/17 14:58:53;;;;;;;;;1.00;1.00;;;;;34.55;26.03;100800.66;5128364;28;8968;-61
2022/07/17 15:01:20;;;;;;;;;2.20;2.00;;;;;34.77;25.83;100802.38;5110759;28;8896;-61
2022/07/17 15:03:48;;;;;;;;;2.00;2.00;;;;;34.81;25.97;100791.63;5111447;28;8926;-61
2022/07/17 15:06:16;;;;;;;;;2.00;1.20;;;;;34.61;25.87;100800.50;5110975;28;8910;-61
2022/07/17 15:08:46;;;;;;;;;2.00;2.00;;;;;34.29;26.49;100798.66;5110909;28;8918;-60
2022/07/17 15:11:14;;;;;;;;;1.00;1.00;;;;;34.06;26.37;100793.31;5111034;28;8931;-62
2022/07/17 15:13:42;;;;;;;;;2.00;2.00;;;;;33.99;26.58;100787.94;5111729;28;8838;-61
2022/07/17 15:16:10;;;;;;;;;2.20;1.80;;;;;34.03;26.14;100788.28;5109995;28;8837;-61
2022/07/17 15:18:39;;;;;;;;;1.00;1.00;;;;;34.03;26.97;100780.84;5110258;28;8838;-60
2022/07/17 15:21:06;;;;;;;;;1.00;1.00;;;;;34.15;26.86;100789.03;5110328;28;8919;-61
2022/07/17 15:23:47;;;;;;;;;1.80;1.80;;;;;34.50;26.19;100784.84;5109521;28;8822;-62
2022/07/17 15:26:16;;;;;;;;;1.00;1.00;;;;;34.63;26.21;100780.84;5111144;28;8854;-61
2022/07/17 15:28:48;;;;;;;;;1.00;1.00;;;;;34.62;26.07;100768.09;5113193;27;8846;-62
2022/07/17 15:31:16;;;;;;;;;0.80;0.80;;;;;34.43;26.36;100772.28;5111709;28;8862;-61
2022/07/17 15:33:44;;;;;;;;;1.00;1.00;;;;;34.27;26.65;100778.72;5111419;28;8860;-60
2022/07/17 15:36:12;;;;;;;;;0.80;0.80;;;;;34.20;26.39;100780.81;5118612;27;8912;-60
2022/07/17 15:38:40;;;;;;;;;1.60;1.60;;;;;34.06;26.59;100769.25;5130934;27;8824;-61
2022/07/17 15:41:08;;;;;;;;;0.60;0.60;;;;;33.93;26.31;100766.88;5127995;28;8824;-60
2022/07/17 15:43:36;;;;;;;;;2.00;2.00;;;;;33.90;26.64;100761.00;5118597;28;8836;-60
2022/07/17 15:46:04;;;;;;;;;1.00;1.00;;;;;33.98;26.39;100758.63;5118196;28;9719;-59
2022/07/17 15:48:32;;;;;;;;;1.00;1.00;;;;;34.22;26.03;100762.00;5117924;28;8839;-61
2022/07/17 15:51:00;;;;;;;;;0.80;0.80;;;;;34.42;26.35;100767.84;5117301;28;8848;-61
2022/07/17 15:53:29;;;;;;;;;1.20;1.20;;;;;34.85;25.42;100748.47;5117523;28;9581;-60
2022/07/17 15:55:57;;;;;;;;;1.00;1.00;;;;;35.32;24.78;100749.53;5118187;28;8844;-61
2022/07/17 15:58:25;;;;;;;;;1.00;1.00;;;;;35.84;24.28;100747.75;5116476;28;8832;-60
2022/07/17 16:00:52;;;;;;;;;2.00;2.00;;;;;36.37;23.54;100746.44;5095686;28;8842;-60
2022/07/17 16:03:20;;;;;;;;;2.00;1.80;;;;;36.81;23.23;100750.50;5095169;28;8822;-61
2022/07/17 16:05:49;;;;;;;;;1.00;1.00;;;;;37.11;23.00;100750.59;5097300;28;9051;-60
2022/07/17 16:08:17;;;;;;;;;1.60;1.60;;;;;37.19;23.06;100741.72;5097123;28;8853;-61
2022/07/17 16:10:45;;;;;;;;;1.40;1.00;;;;;37.17;23.55;100738.38;5096686;28;8829;-60
2022/07/17 16:13:13;;;;;;;;;1.20;1.20;;;;;37.42;23.32;100730.06;5096969;28;8989;-62
2022/07/17 16:15:41;;;;;;;;;1.60;1.00;;;;;37.53;22.97;100730.91;5096533;28;8846;-60
2022/07/17 16:18:09;;;;;;;;;2.00;2.00;;;;;37.67;23.31;100727.28;5096670;28;8830;-61
2022/07/17 16:20:37;;;;;;;;;1.00;1.00;;;;;37.51;23.42;100722.84;5097131;28;8910;-60
2022/07/17 16:23:05;;;;;;;;;1.00;1.00;;;;;37.09;23.95;100730.59;5096704;28;8849;-61
2022/07/17 16:25:33;;;;;;;;;1.00;1.00;;;;;36.98;23.76;100728.88;5097421;28;8830;-61
2022/07/17 16:28:01;;;;;;;;;2.00;2.00;;;;;37.05;23.43;100734.16;5099027;28;8837;-61
2022/07/17 16:30:29;;;;;;;;;1.00;1.00;;;;;36.84;24.10;100738.00;5124533;27;8905;-60
2022/07/17 16:32:57;;;;;;;;;1.80;1.80;;;;;36.11;24.07;100741.81;5117225;28;8854;-60
2022/07/17 16:35:25;;;;;;;;;3.20;3.00;;;;;35.09;25.57;100736.00;5117155;28;8917;-61
2022/07/17 16:37:53;;;;;;;;;1.40;1.40;;;;;33.92;26.29;100747.75;5116786;28;8858;-61
2022/07/17 16:40:22;;;;;;;;;2.00;2.00;;;;;32.88;27.76;100739.28;5116989;28;8835;-62
2022/07/17 16:42:49;;;;;;;;;3.80;3.20;;;;;32.08;28.38;100737.56;5116663;28;8839;-60
2022/07/17 16:45:18;;;;;;;;;2.00;2.00;;;;;31.44;29.10;100740.41;5116869;28;8921;-60
2022/07/17 16:47:46;;;;;;;;;2.00;2.00;;;;;30.93;29.76;100734.63;5117538;28;8932;-61
2022/07/17 16:50:14;;;;;;;;;1.20;1.20;;;;;30.52;30.23;100735.38;5116727;28;8832;-60
2022/07/17 16:52:42;;;;;;;;;1.20;1.00;;;;;30.24;30.28;100728.75;5116289;28;8827;-61
2022/07/17 16:55:10;;;;;;;;;1.00;1.00;;;;;30.03;30.45;100734.69;5116182;28;8828;-60
2022/07/17 16:57:39;;;;;;;;;1.00;1.00;;;;;29.89;30.55;100724.91;5116222;28;8840;-60
2022/07/17 17:00:08;;;;;;;;;1.60;1.00;;;;;29.68;31.09;100719.00;5133471;27;8838;-60
2022/07/17 17:02:36;;;;;;;;;1.60;1.20;;;;;29.40;30.84;100716.69;5136630;27;8872;-60
2022/07/17 17:05:04;;;;;;;;;1.00;1.00;;;;;29.13;31.75;100719.91;5136929;27;8893;-60
2022/07/17 17:07:33;;;;;;;;;1.00;1.00;;;;;28.83;31.43;100716.06;5137533;27;8833;-61
2022/07/17 17:10:00;;;;;;;;;0.00;0.00;;;;;28.61;32.14;100722.94;5136394;27;8898;-60
2022/07/17 17:12:28;;;;;;;;;0.80;0.40;;;;;28.44;31.71;100722.59;5134892;27;8884;-59
2022/07/17 17:14:56;;;;;;;;;1.00;1.00;;;;;28.27;32.16;100721.38;5136712;27;8826;-61
2022/07/17 17:17:24;;;;;;;;;1.60;1.60;;;;;28.08;32.34;100719.53;5136932;27;8834;-64
2022/07/17 17:19:52;;;;;;;;;2.00;2.00;;;;;27.91;32.65;100707.38;5136743;27;8829;-59
2022/07/17 17:22:20;;;;;;;;;1.00;1.00;;;;;27.76;32.24;100706.78;5136741;27;8826;-61
2022/07/17 17:24:48;;;;;;;;;0.00;0.00;;;;;27.62;32.33;100705.09;5136707;27;8830;-60
2022/07/17 17:27:16;;;;;;;;;0.00;0.00;;;;;27.48;32.77;100705.34;5136818;27;8852;-60
2022/07/17 17:29:44;;;;;;;;;1.60;1.00;;;;;27.34;32.57;100696.31;5112161;27;8854;-59
2022/07/17 17:32:12;;;;;;;;;0.80;0.80;;;;;27.25;32.75;100700.28;5095259;28;8848;-60
2022/07/17 17:34:40;;;;;;;;;1.40;1.40;;;;;27.18;33.20;100693.16;5095186;28;8841;-59
2022/07/17 17:37:09;;;;;;;;;1.00;0.80;;;;;27.14;33.40;100703.66;5095596;28;8837;-60
2022/07/17 17:39:37;;;;;;;;;1.00;1.00;;;;;27.09;33.22;100708.88;5095886;28;8861;-61
2022/07/17 17:42:05;;;;;;;;;1.00;1.00;;;;;27.03;32.74;100706.16;5095790;28;8956;-59
2022/07/17 17:44:33;;;;;;;;;1.00;1.00;;;;;26.96;33.13;100705.31;5095883;28;8822;-59
2022/07/17 17:47:01;;;;;;;;;1.60;1.60;;;;;26.88;33.33;100703.59;5095281;28;8903;-59
2022/07/17 17:49:29;;;;;;;;;2.00;1.00;;;;;26.81;33.36;100701.91;5095395;28;8919;-60
2022/07/17 17:51:57;;;;;;;;;1.20;1.00;;;;;26.71;33.47;100691.38;5095003;28;8880;-60
2022/07/17 17:54:25;;;;;;;;;1.00;0.00;;;;;26.62;33.23;100687.16;5095115;28;8834;-60
2022/07/17 17:56:54;;;;;;;;;1.00;1.00;;;;;26.53;33.43;100687.56;5095022;28;8838;-60
2022/07/17 17:59:22;;;;;;;;;1.00;1.00;;;;;26.44;33.40;100677.84;5110224;28;9497;-59
2022/07/17 18:01:49;;;;;;;;;1.00;1.00;;;;;26.35;33.85;100674.44;5115755;28;8916;-58
2022/07/17 18:04:17;;;;;;;;;1.00;1.00;;;;;26.27;34.09;100682.81;5115368;28;8831;-59
2022/07/17 18:06:46;;;;;;;;;1.00;1.00;;;;;26.19;34.04;100680.25;5115148;28;8830;-59
2022/07/17 18:09:14;;;;;;;;;0.20;0.20;;;;;26.11;33.97;100680.44;5097676;28;8961;-60
2022/07/17 18:11:42;;;;;;;;;0.00;0.00;;;;;26.05;33.90;100674.97;5115186;28;8828;-61
2022/07/17 18:14:10;;;;;;;;;1.00;1.00;;;;;25.99;33.37;100678.50;5115410;28;8847;-62
2022/07/17 18:16:41;;;;;;;;;1.00;1.00;;;;;25.94;34.12;100673.66;5114871;28;8847;-62
2022/07/17 18:19:09;;;;;;;;;1.00;1.00;;;;;25.89;33.73;100670.69;5115407;28;8823;-62
2022/07/17 18:21:37;;;;;;;;;0.00;0.00;;;;;25.82;33.82;100674.41;5114752;28;8831;-61
2022/07/17 18:24:05;;;;;;;;;0.80;0.80;;;;;25.77;34.27;100677.75;5115617;28;8835;-62
2022/07/17 18:26:33;;;;;;;;;0.00;0.00;;;;;25.71;33.77;100681.28;5114869;28;8855;-61
2022/07/17 18:29:01;;;;;;;;;1.00;1.00;;;;;25.67;34.19;100692.78;5100432;28;8834;-62
2022/07/17 18:31:29;;;;;;;;;1.80;1.00;;;;;25.58;34.00;100690.41;5093579;28;8838;-61
2022/07/17 18:33:57;;;;;;;;;1.00;1.00;;;;;25.49;34.28;100692.44;5107586;28;8816;-60
2022/07/17 18:36:25;;;;;;;;;1.00;1.00;;;;;25.41;34.41;100691.78;5115063;28;8932;-61
2022/07/17 18:38:53;;;;;;;;;1.00;1.00;;;;;25.31;34.39;100697.56;5115547;28;8827;-60
2022/07/17 18:41:21;;;;;;;;;1.00;1.00;;;;;25.22;34.83;100700.59;5101920;28;9521;-62
2022/07/17 18:43:50;;;;;;;;;3.00;3.00;;;;;25.14;34.52;100698.88;5094795;28;8827;-62
2022/07/17 18:46:18;;;;;;;;;1.00;0.00;;;;;25.05;34.90;100707.38;5094897;28;8869;-61
2022/07/17 18:48:46;;;;;;;;;0.60;0.00;;;;;24.96;34.87;100708.56;5100991;28;8832;-61
2022/07/17 18:51:14;;;;;;;;;1.00;1.00;;;;;24.88;34.81;100704.06;5115311;28;8847;-62
2022/07/17 18:53:42;;;;;;;;;1.00;1.00;;;;;24.80;35.11;100712.38;5113060;28;8835;-62
2022/07/17 18:56:10;;;;;;;;;0.40;0.40;;;;;24.71;34.75;100713.56;5114709;28;8828;-62
2022/07/17 18:58:38;;;;;;;;;1.00;1.00;;;;;24.64;35.31;100728.16;5114989;28;8840;-62
2022/07/17 19:01:07;;;;;;;;;1.00;1.00;;;;;24.56;35.14;100731.00;5114761;28;8844;-62
2022/07/17 19:03:38;;;;;;;;;1.00;1.00;;;;;24.49;34.99;100732.78;5114486;28;8828;-62
2022/07/17 19:06:06;;;;;;;;;1.00;1.00;;;;;24.42;35.41;100740.84;5114457;28;8823;-61
2022/07/17 19:08:34;;;;;;;;;1.00;1.00;;;;;24.36;35.73;100747.03;5115071;28;8889;-62
2022/07/17 19:11:02;;;;;;;;;1.00;0.40;;;;;24.31;35.46;100744.06;5115083;28;8824;-62
2022/07/17 19:13:30;;;;;;;;;0.00;0.00;;;;;24.26;35.48;100735.63;5114969;28;8935;-62
2022/07/17 19:15:58;;;;;;;;;1.00;1.00;;;;;24.21;35.37;100721.72;5114743;28;8828;-61
2022/07/17 19:18:26;;;;;;;;;1.60;1.00;;;;;24.16;35.48;100734.22;5115567;28;8866;-61
2022/07/17 19:20:54;;;;;;;;;1.00;1.00;;;;;24.10;35.98;100729.53;5098090;28;9531;-60
2022/07/17 19:23:25;;;;;;;;;1.00;1.00;;;;;24.02;35.65;100726.91;5098179;28;8834;-62
2022/07/17 19:25:54;;;;;;;;;1.80;1.00;;;;;23.94;35.81;100730.59;5097805;28;8845;-61
2022/07/17 19:28:21;;;;;;;;;0.80;0.80;;;;;23.84;35.69;100723.72;5114112;28;8796;-62
2022/07/17 19:30:50;;;;;;;;;0.00;0.00;;;;;23.75;36.89;100741.16;5133048;27;8858;-61
2022/07/17 19:33:17;;;;;;;;;1.00;1.00;;;;;23.64;36.19;100741.59;5136692;27;8848;-62
2022/07/17 19:35:45;;;;;;;;;0.40;0.40;;;;;23.51;36.62;100738.72;5138412;27;8840;-63
2022/07/17 19:38:14;;;;;;;;;0.80;0.80;;;;;23.39;36.71;100735.59;5139203;27;8845;-61
2022/07/17 19:40:42;;;;;;;;;0.00;0.00;;;;;23.30;36.46;100717.63;5139174;27;9575;-62
2022/07/17 19:43:09;;;;;;;;;1.00;0.00;;;;;23.22;36.50;100716.88;5139486;27;8922;-62
2022/07/17 19:45:38;;;;;;;;;1.00;1.00;;;;;23.13;36.67;100717.97;5139445;27;8834;-61
2022/07/17 19:48:06;;;;;;;;;0.00;0.00;;;;;23.04;37.32;100728.06;5119669;27;8851;-63
2022/07/17 19:50:34;;;;;;;;;1.00;1.00;;;;;22.90;37.24;100726.13;5118700;28;8827;-62
2022/07/17 19:53:02;;;;;;;;;2.00;1.00;;;;;22.76;37.15;100736.94;5118308;28;8844;-62
2022/07/17 19:55:30;;;;;;;;;0.60;0.00;;;;;22.61;37.50;100738.75;5118333;28;8839;-62
2022/07/17 19:57:58;;;;;;;;;1.00;1.00;;;;;22.48;37.52;100754.75;5116986;28;8849;-60
2022/07/17 20:00:28;;;;;;;;;0.00;0.00;;;;;22.36;37.57;100757.00;5116346;28;8848;-62
2022/07/17 20:02:56;;;;;;;;;1.00;1.00;;;;;22.24;37.74;100757.56;5116934;28;8900;-59
2022/07/17 20:05:24;;;;;;;;;1.00;1.00;;;;;22.12;38.17;100758.97;5118172;28;8888;-62
2022/07/17 20:07:52;;;;;;;;;0.80;0.80;;;;;22.00;38.39;100755.78;5117890;28;8846;-61
2022/07/17 20:10:20;;;;;;;;;0.20;0.00;;;;;21.91;38.31;100761.41;5118010;28;8870;-63
2022/07/17 20:12:48;;;;;;;;;0.60;0.60;;;;;21.80;38.30;100770.75;5117647;28;9493;-62
2022/07/17 20:15:16;;;;;;;;;0.00;0.00;;;;;21.70;38.58;100772.00;5117337;28;8828;-62
2022/07/17 20:17:47;;;;;;;;;0.40;0.40;;;;;21.62;38.79;100780.09;5132947;27;9691;-63
2022/07/17 20:20:15;;;;;;;;;0.80;0.80;;;;;21.53;39.21;100783.84;5138381;27;8834;-60
2022/07/17 20:22:42;;;;;;;;;0.40;0.20;;;;;21.46;38.87;100780.13;5138610;27;8826;-61
2022/07/17 20:25:10;;;;;;;;;1.00;1.00;;;;;21.38;39.07;100775.56;5138539;27;8818;-60
2022/07/17 20:27:39;;;;;;;;;1.00;1.00;;;;;21.32;39.13;100769.97;5137354;27;8861;-62
2022/07/17 20:30:07;;;;;;;;;1.00;1.00;;;;;21.24;39.46;100760.00;5135863;27;8862;-60
2022/07/17 20:32:35;;;;;;;;;1.00;1.00;;;;;21.17;39.54;100760.81;5135986;27;8822;-62
2022/07/17 20:35:03;;;;;;;;;0.20;0.20;;;;;21.08;39.26;100759.13;5137164;27;9744;-61
2022/07/17 20:37:31;;;;;;;;;0.40;0.40;;;;;20.98;39.46;100755.75;5137611;27;8830;-62
2022/07/17 20:39:59;;;;;;;;;0.00;0.00;;;;;20.85;39.51;100766.19;5137822;27;8845;-62
2022/07/17 20:42:27;;;;;;;;;0.00;0.00;;;;;20.71;40.17;100757.91;5137981;27;8829;-61
2022/07/17 20:44:55;;;;;;;;;1.00;1.00;;;;;20.57;40.11;100762.09;5138474;27;8930;-62
2022/07/17 20:47:23;;;;;;;;;1.00;1.00;;;;;20.44;40.58;100763.56;5122752;27;8808;-60
2022/07/17 20:49:51;;;;;;;;;0.00;0.00;;;;;20.32;40.49;100762.19;5117407;28;8852;-61
2022/07/17 20:52:19;;;;;;;;;0.00;0.00;;;;;20.18;40.60;100760.13;5117491;28;8925;-59
2022/07/17 20:54:49;;;;;;;;;1.00;1.00;;;;;20.05;41.23;100759.72;5116156;28;8854;-61
2022/07/17 20:57:17;;;;;;;;;1.00;1.00;;;;;19.94;40.85;100763.50;5116351;28;8831;-60
2022/07/17 20:59:45;;;;;;;;;1.00;1.00;;;;;19.84;41.14;100762.78;5117633;28;8843;-61
2022/07/17 21:02:13;;;;;;;;;1.00;1.00;;;;;19.75;41.31;100762.91;5116295;28;8855;-59
2022/07/17 21:04:41;;;;;;;;;1.00;1.00;;;;;19.69;41.62;100764.41;5115538;28;9519;-59
2022/07/17 21:07:09;;;;;;;;;1.80;1.80;;;;;19.63;41.53;100765.03;5116936;28;8828;-61
2022/07/17 21:09:37;;;;;;;;;1.00;0.80;;;;;19.57;41.67;100760.25;5116876;28;8832;-59
2022/07/17 21:12:06;;;;;;;;;1.00;1.00;;;;;19.54;41.72;100757.03;5117111;28;8836;-61
2022/07/17 21:14:34;;;;;;;;;2.20;1.00;;;;;19.47;41.98;100762.22;5116969;28;8836;-62
2022/07/17 21:17:03;;;;;;;;;0.00;0.00;;;;;19.42;42.02;100761.00;5128069;27;8856;-61
2022/07/17 21:19:31;;;;;;;;;1.00;1.00;;;;;19.37;42.07;100757.94;5136997;27;8852;-61
2022/07/17 21:22:02;;;;;;;;;2.00;2.00;;;;;19.33;41.94;100759.22;5136209;27;8914;-61
2022/07/17 21:24:30;;;;;;;;;0.80;0.80;;;;;19.28;42.18;100762.41;5137601;27;9259;-61
2022/07/17 21:26:58;;;;;;;;;0.60;0.60;;;;;19.23;42.18;100772.00;5136823;27;8829;-62
2022/07/17 21:29:26;;;;;;;;;0.40;0.40;;;;;19.19;42.02;100757.97;5137068;27;8894;-62
2022/07/17 21:31:54;;;;;;;;;1.60;1.60;;;;;19.15;42.55;100759.25;5137323;27;8832;-62
2022/07/17 21:34:22;;;;;;;;;1.00;1.00;;;;;19.08;42.25;100752.78;5137037;27;8834;-60
2022/07/17 21:36:50;;;;;;;;;0.80;0.80;;;;;18.98;42.15;100752.00;5136482;27;8890;-63
2022/07/17 21:39:18;;;;;;;;;1.80;1.00;;;;;18.86;43.00;100755.97;5136349;27;8826;-62
2022/07/17 21:41:46;;;;;;;;;1.00;1.00;;;;;18.70;43.10;100758.50;5137373;27;8899;-60
2022/07/17 21:44:14;;;;;;;;;1.00;0.40;;;;;18.57;43.03;100751.78;5137391;27;8922;-62
2022/07/17 21:46:42;;;;;;;;;0.80;0.80;;;;;18.45;43.34;100759.22;5124673;27;8820;-61
2022/07/17 21:49:10;;;;;;;;;2.20;2.20;;;;;18.36;43.33;100759.31;5115148;28;9753;-62
2022/07/17 21:51:38;;;;;;;;;1.00;1.00;;;;;18.28;43.19;100759.19;5115873;28;8820;-65
2022/07/17 21:54:08;;;;;;;;;1.00;1.00;;;;;18.19;43.86;100752.84;5115870;28;8844;-62
2022/07/17 21:56:35;;;;;;;;;1.00;1.00;;;;;18.13;43.97;100753.44;5114747;28;8828;-62
2022/07/17 21:59:03;;;;;;;;;3.00;1.60;;;;;18.07;43.73;100759.44;5114931;28;8831;-61
2022/07/17 22:01:31;;;;;;;;;3.00;3.00;;;;;17.98;44.00;100757.63;5115606;28;8839;-61
2022/07/17 22:03:59;;;;;;;;;1.00;1.00;;;;;17.90;44.16;100762.94;5115558;28;8831;-59
2022/07/17 22:06:27;;;;;;;;;1.80;1.00;;;;;17.80;44.13;100759.44;5115463;28;8834;-62
2022/07/17 22:08:56;;;;;;;;;0.80;0.80;;;;;17.72;44.31;100753.06;5115179;28;8827;-62
2022/07/17 22:11:24;;;;;;;;;1.00;1.00;;;;;17.66;44.60;100749.13;5113644;28;8823;-60
2022/07/17 22:13:53;;;;;;;;;0.20;0.20;;;;;17.60;44.81;100756.97;5114542;28;8864;-60
2022/07/17 22:16:22;;;;;;;;;0.20;0.20;;;;;17.52;44.29;100746.91;5123031;27;8914;-61
2022/07/17 22:18:50;;;;;;;;;1.00;1.00;;;;;17.48;44.41;100748.16;5135883;27;9585;-63
2022/07/17 22:21:18;;;;;;;;;3.00;3.00;;;;;17.44;44.60;100760.25;5135713;27;8837;-61
2022/07/17 22:23:46;;;;;;;;;0.00;0.00;;;;;17.38;45.14;100744.66;5135932;27;8829;-61
2022/07/17 22:26:14;;;;;;;;;1.00;1.00;;;;;17.33;45.13;100751.47;5136370;27;8837;-62
2022/07/17 22:28:42;;;;;;;;;1.00;1.00;;;;;17.24;45.17;100746.94;5136074;27;8837;-62
2022/07/17 22:31:10;;;;;;;;;1.00;1.00;;;;;17.17;44.72;100737.75;5136402;27;8961;-61
2022/07/17 22:33:38;;;;;;;;;2.00;1.00;;;;;17.09;45.03;100741.13;5135861;27;8872;-62
2022/07/17 22:36:06;;;;;;;;;0.20;0.20;;;;;17.04;45.37;100739.88;5136419;27;8906;-62
2022/07/17 22:38:34;;;;;;;;;1.00;0.80;;;;;17.02;45.94;100737.31;5136623;27;8898;-61
2022/07/17 22:41:03;;;;;;;;;1.00;1.00;;;;;16.97;45.78;100731.53;5136588;27;8833;-61
2022/07/17 22:43:30;;;;;;;;;1.00;1.00;;;;;16.93;45.90;100727.44;5136360;27;8902;-62
2022/07/17 22:45:58;;;;;;;;;3.00;1.00;;;;;16.88;45.76;100727.03;5131764;27;8888;-62
2022/07/17 22:48:26;;;;;;;;;3.00;3.00;;;;;16.83;45.77;100731.97;5115972;28;8836;-62
2022/07/17 22:50:54;;;;;;;;;3.00;2.60;;;;;16.81;45.69;100728.59;5115902;28;8924;-62
2022/07/17 22:53:22;;;;;;;;;3.00;3.00;;;;;16.77;45.91;100732.53;5119653;28;8928;-62
2022/07/17 22:55:51;;;;;;;;;1.00;1.00;;;;;16.73;45.63;100730.28;5119536;28;8836;-61
2022/07/17 22:58:19;;;;;;;;;2.50;2.50;;;;;16.69;46.21;100732.41;5119719;28;8912;-63
2022/07/17 23:00:47;;;;;;;;;1.00;1.00;;;;;16.64;46.32;100731.97;5120400;28;8848;-61
2022/07/17 23:03:15;;;;;;;;;4.00;4.00;;;;;16.63;45.46;100740.19;5119477;28;8824;-62
2022/07/17 23:05:43;;;;;;;;;3.00;2.20;;;;;16.57;45.66;100733.50;5119706;28;8832;-61
2022/07/17 23:08:11;;;;;;;;;0.80;0.80;;;;;16.52;46.84;100725.03;5118564;28;8824;-62
2022/07/17 23:10:39;;;;;;;;;2.25;2.25;;;;;16.49;46.38;100721.78;5119727;28;8851;-60
2022/07/17 23:13:07;;;;;;;;;1.00;1.00;;;;;16.47;45.87;100719.22;5119435;28;8839;-61
2022/07/17 23:15:35;;;;;;;;;2.00;2.00;;;;;16.46;46.28;100722.91;5122709;27;8830;-62
2022/07/17 23:18:03;;;;;;;;;2.50;2.50;;;;;16.44;46.86;100714.13;5139753;27;8865;-62
2022/07/17 23:20:31;;;;;;;;;1.00;1.00;;;;;16.43;46.13;100717.81;5140181;27;8814;-61
2022/07/17 23:22:59;;;;;;;;;1.00;1.00;;;;;16.38;46.43;100719.22;5140103;27;8838;-62
2022/07/17 23:25:27;;;;;;;;;0.80;0.80;;;;;16.32;46.43;100712.53;5139669;27;8825;-62
2022/07/17 23:27:55;;;;;;;;;1.00;1.00;;;;;16.28;47.09;100703.06;5140077;27;8906;-62
2022/07/17 23:30:23;;;;;;;;;0.80;0.80;;;;;16.26;46.57;100709.56;5139541;27;9639;-62
2022/07/17 23:32:51;;;;;;;;;0.20;0.20;;;;;16.25;46.52;100724.00;5140156;27;8818;-62
2022/07/17 23:35:19;;;;;;;;;1.00;1.00;;;;;16.22;46.94;100715.34;5139682;27;8838;-62
2022/07/17 23:37:47;;;;;;;;;3.00;3.00;;;;;16.19;46.55;100716.47;5139844;27;8833;-60
2022/07/17 23:40:15;;;;;;;;;1.00;1.00;;;;;16.17;46.80;100721.16;5139783;27;8926;-60
2022/07/17 23:42:43;;;;;;;;;1.00;1.00;;;;;16.17;46.72;100726.53;5139666;27;8825;-62
2022/07/17 23:45:11;;;;;;;;;3.00;3.00;;;;;16.18;46.45;100730.91;5139055;27;8878;-62
2022/07/17 23:47:39;;;;;;;;;1.00;1.00;;;;;16.18;46.77;100729.03;5119022;28;8917;-60
2022/07/17 23:50:07;;;;;;;;;0.50;0.50;;;;;16.23;46.32;100725.94;5118625;28;8908;-62
2022/07/17 23:52:35;;;;;;;;;1.00;1.00;;;;;16.27;46.91;100732.75;5118891;28;8827;-62
2022/07/17 23:55:03;;;;;;;;;2.50;2.00;;;;;16.30;46.41;100727.09;5118539;28;8871;-62
2022/07/17 23:57:31;;;;;;;;;1.00;1.00;;;;;16.29;47.21;100726.25;5119100;28;8839;-62
2022/07/17 23:59:58;;;;;;;;;1.00;1.00;;;;;16.26;46.75;100723.81;5118486;28;8852;-61
